Portada
METAR-TAF:

METAR-TAF

Aeroports :

Gibraltar, Gibraltar

latitud: 36-09N, longitud: 005-21W, altitud: 5 m

Observació

L'informe es va fer fa 58 minuts, a les 20:50 UTC
Vent 14 kt del Est/Nord-Est
Temperatura 18°C
Humitat 77%
Pressió 1013 hPa
Visibilitat 10 km o més

METAR: LXGB 222050Z AUTO 06014KT 9999 // SCT140/// 18/14 Q1013

Hora: 23:48 (21:48 UTC)

Pronòstic

L'informe es va fer fa 4 hores i 22 minuts, a les 17:26 UTC
Pronòstic vàlid del 22 a les 18 UTC al 22 a les 22 UTC
Vent 5 kt del Nord-Est
Visibilitat 10 km o més
Escasses núvols a una alçada de 2500 ft
Probabilitat 30% :
Temporalment
l' 22 a les 18 UTC al 22 a les 22 UTC
Visibilitat: 7000 m
Núvols disperses a una alçada de 2000 ft
Cel ennuvolat a una alçada de 5000 ft, Cumulonimbus.
tempesta, pluja

TAF: LXGB 221726Z 2218/2222 04005KT 9999 FEW025 PROB30 TEMPO 2218/2222 7000 TSRA SCT020 BKN050CB

Observacions i pronòstics meteorològics de més de 4000 aeroports (METAR i TAF).

Les estacions disponibles són els punts grocs i vermells al mapa.

Posi el ratolí al punt desitjat per veure el nom de l'estació.

Feu clic per veure les observacions i els pronòstics meteorològics.

Per canviar el mapa: feu clic els botons verds amb una creu de color negre per apropar; al botó verd amb un guió per allunyar la imatge; o en les fletxes verdes per a mapes adjacents.


METAR-TAF: